Time;durP1;ratioP1;P1;durP2;ratioP2;P2;SDS_P1;SDS_P2;PMS_P1;PMS_P2;Temp;Humidity;BMP_temperature;BMP_pressure;BME280_temperature;BME280_humidity;BME280_pressure;Samples;Min_cycle;Max_cycle;Signal;HPM_P1;HPM_P2
2021/07/06 00:00:41;;;;;;;;;;;;;;;;;;5012754;28;19914;-83
2021/07/06 00:03:06;;;;;;;;;;;;;;;;;;5013151;28;19921;-83
2021/07/06 00:05:31;;;;;;;;;;;;;;;;;;5012860;28;20435;-83
2021/07/06 00:07:56;;;;;;;;;;;;;;;;;;5012929;28;19913;-83
2021/07/06 00:10:22;;;;;;;;;;;;;;;;;;5013143;28;19921;-84
2021/07/06 00:12:47;;;;;;;;;;;;;;;;;;5012005;28;19918;-83
2021/07/06 00:15:13;;;;;;;;;;;;;;;;;;5029153;28;19914;-83
2021/07/06 00:17:39;;;;;;;;;;;;;;;;;;5012169;28;20303;-83
2021/07/06 00:20:06;;;;;;;;;;;;;;;;;;5028499;28;19922;-83
2021/07/06 00:22:31;;;;;;;;;;;;;;;;;;5012671;28;19914;-83
2021/07/06 00:24:56;;;;;;;;;;;;;;;;;;5012585;28;19944;-83
2021/07/06 00:27:22;;;;;;;;;;;;;;;;;;5012220;28;19917;-84
2021/07/06 00:29:47;;;;;;;;;;;;;;;;;;5012455;28;20376;-83
2021/07/06 00:32:12;;;;;;;;;;;;;;;;;;5012234;28;19914;-83
2021/07/06 00:34:37;;;;;;;;;;;;;;;;;;5028777;28;19941;-83
2021/07/06 00:37:02;;;;;;;;;;;;;;;;;;4995525;28;19960;-83
2021/07/06 00:39:28;;;;;;;;;;;;;;;;;;5012049;28;20359;-83
2021/07/06 00:41:53;;;;;;;;;;;;;;;;;;5012081;28;19964;-83
2021/07/06 00:44:18;;;;;;;;;;;;;;;;;;5011103;28;20300;-83
2021/07/06 00:46:44;;;;;;;;;;;;;;;;;;5027276;28;19953;-83
2021/07/06 00:49:09;;;;;;;;;;;;;;;;;;5028328;28;20353;-83
2021/07/06 00:51:34;;;;;;;;;;;;;;;;;;5011669;28;19922;-83
2021/07/06 00:54:00;;;;;;;;;;;;;;;;;;5011745;28;20017;-83
2021/07/06 00:56:25;;;;;;;;;;;;;;;;;;5028224;28;20369;-83
2021/07/06 00:58:50;;;;;;;;;;;;;;;;;;5011235;28;19917;-83
2021/07/06 01:01:15;;;;;;;;;;;;;;;;;;5012126;28;20296;-83
2021/07/06 01:03:41;;;;;;;;;;;;;;;;;;5012264;28;19960;-83
2021/07/06 01:06:06;;;;;;;;;;;;;;;;;;5011520;28;19917;-83
2021/07/06 01:08:31;;;;;;;;;;;;;;;;;;4994794;28;19960;-83
2021/07/06 01:10:57;;;;;;;;;;;;;;;;;;5028441;28;20004;-83
2021/07/06 01:13:22;;;;;;;;;;;;;;;;;;5011487;28;20442;-83
2021/07/06 01:15:47;;;;;;;;;;;;;;;;;;5011379;28;19964;-83
2021/07/06 01:18:13;;;;;;;;;;;;;;;;;;5027882;28;19922;-83
2021/07/06 01:20:41;;;;;;;;;;;;;;;;;;5010977;28;19988;-83
2021/07/06 01:23:07;;;;;;;;;;;;;;;;;;5011942;28;20285;-83
2021/07/06 01:25:33;;;;;;;;;;;;;;;;;;5028335;28;19922;-83
2021/07/06 01:27:58;;;;;;;;;;;;;;;;;;5028101;28;20331;-83
2021/07/06 01:30:23;;;;;;;;;;;;;;;;;;5028016;28;19914;-83
2021/07/06 01:32:49;;;;;;;;;;;;;;;;;;5012659;28;19980;-83
2021/07/06 01:35:14;;;;;;;;;;;;;;;;;;5015681;28;20380;-83
2021/07/06 01:37:59;;;;;;;;;;;;;;;;;;5015069;28;19918;-83
2021/07/06 01:40:24;;;;;;;;;;;;;;;;;;5015675;28;19964;-82
2021/07/06 01:42:50;;;;;;;;;;;;;;;;;;5015199;28;19918;-83
2021/07/06 01:45:15;;;;;;;;;;;;;;;;;;5031129;28;20006;-83
2021/07/06 01:47:41;;;;;;;;;;;;;;;;;;5031687;28;19918;-83
2021/07/06 01:50:07;;;;;;;;;;;;;;;;;;5015321;28;20387;-83
2021/07/06 01:52:33;;;;;;;;;;;;;;;;;;5014760;28;19936;-83
2021/07/06 01:54:58;;;;;;;;;;;;;;;;;;5031402;28;20336;-83
2021/07/06 01:57:24;;;;;;;;;;;;;;;;;;5014128;28;19918;-83
2021/07/06 01:59:50;;;;;;;;;;;;;;;;;;4999243;28;20399;-83
2021/07/06 02:02:15;;;;;;;;;;;;;;;;;;4982073;28;19914;-83
2021/07/06 02:04:41;;;;;;;;;;;;;;;;;;4982218;28;20270;-83
2021/07/06 02:07:06;;;;;;;;;;;;;;;;;;4997600;28;19925;-83
2021/07/06 02:09:31;;;;;;;;;;;;;;;;;;5014011;28;19978;-83
2021/07/06 02:11:56;;;;;;;;;;;;;;;;;;5030673;28;19918;-83
2021/07/06 02:14:21;;;;;;;;;;;;;;;;;;5014601;28;19937;-83
2021/07/06 02:16:47;;;;;;;;;;;;;;;;;;5031548;28;19918;-83
2021/07/06 02:19:12;;;;;;;;;;;;;;;;;;5014924;28;19914;-83
2021/07/06 02:21:37;;;;;;;;;;;;;;;;;;5031353;28;19921;-82
2021/07/06 02:24:02;;;;;;;;;;;;;;;;;;5014473;28;19922;-82
2021/07/06 02:26:28;;;;;;;;;;;;;;;;;;5013919;28;19924;-83
2021/07/06 02:28:53;;;;;;;;;;;;;;;;;;5014396;28;20012;-83
2021/07/06 02:31:18;;;;;;;;;;;;;;;;;;5030652;28;19920;-83
2021/07/06 02:33:43;;;;;;;;;;;;;;;;;;5013971;28;19925;-82
2021/07/06 02:36:08;;;;;;;;;;;;;;;;;;5013558;28;19918;-83
2021/07/06 02:38:34;;;;;;;;;;;;;;;;;;5031070;28;19918;-84
2021/07/06 02:41:00;;;;;;;;;;;;;;;;;;5013633;28;19913;-83
2021/07/06 02:43:25;;;;;;;;;;;;;;;;;;5013830;28;19922;-83
2021/07/06 02:45:51;;;;;;;;;;;;;;;;;;5030266;28;19965;-83
2021/07/06 02:48:16;;;;;;;;;;;;;;;;;;5013845;28;19941;-83
2021/07/06 02:50:41;;;;;;;;;;;;;;;;;;5014619;28;19921;-83
2021/07/06 02:53:07;;;;;;;;;;;;;;;;;;5030306;28;19917;-83
2021/07/06 02:55:32;;;;;;;;;;;;;;;;;;5013585;28;19918;-83
2021/07/06 02:57:57;;;;;;;;;;;;;;;;;;4998740;28;19914;-82
2021/07/06 03:00:27;;;;;;;;;;;;;;;;;;5012605;28;20427;-82
2021/07/06 03:02:52;;;;;;;;;;;;;;;;;;5030216;28;19918;-83
2021/07/06 03:05:18;;;;;;;;;;;;;;;;;;5013158;28;19925;-83
2021/07/06 03:07:44;;;;;;;;;;;;;;;;;;5013583;28;19924;-83
2021/07/06 03:10:10;;;;;;;;;;;;;;;;;;5013571;28;19969;-83
2021/07/06 03:12:35;;;;;;;;;;;;;;;;;;5014397;28;19969;-83
2021/07/06 03:15:00;;;;;;;;;;;;;;;;;;5029034;28;20301;-83
2021/07/06 03:17:25;;;;;;;;;;;;;;;;;;5013324;28;19918;-83
2021/07/06 03:19:51;;;;;;;;;;;;;;;;;;5013339;28;19921;-83
2021/07/06 03:22:16;;;;;;;;;;;;;;;;;;5013134;28;19969;-83
2021/07/06 03:24:41;;;;;;;;;;;;;;;;;;5013088;28;19917;-83
2021/07/06 03:27:06;;;;;;;;;;;;;;;;;;5012608;28;20325;-83
2021/07/06 03:29:31;;;;;;;;;;;;;;;;;;5012875;28;19941;-82
2021/07/06 03:31:56;;;;;;;;;;;;;;;;;;5013056;28;20012;-83
2021/07/06 03:34:22;;;;;;;;;;;;;;;;;;4998002;28;19925;-82
2021/07/06 03:36:47;;;;;;;;;;;;;;;;;;5012750;28;19918;-82
2021/07/06 03:39:12;;;;;;;;;;;;;;;;;;5013138;28;19918;-82
2021/07/06 03:41:37;;;;;;;;;;;;;;;;;;5012290;28;19921;-82
2021/07/06 03:44:03;;;;;;;;;;;;;;;;;;5012523;28;19922;-82
2021/07/06 03:46:28;;;;;;;;;;;;;;;;;;5012217;28;19918;-83
2021/07/06 03:48:54;;;;;;;;;;;;;;;;;;5023430;28;20005;-84
2021/07/06 03:51:19;;;;;;;;;;;;;;;;;;5023103;28;19960;-84
2021/07/06 03:53:45;;;;;;;;;;;;;;;;;;5040975;28;19918;-85
2021/07/06 03:56:10;;;;;;;;;;;;;;;;;;5041587;28;19914;-85
2021/07/06 03:58:35;;;;;;;;;;;;;;;;;;5034122;28;19906;-85
2021/07/06 04:01:02;;;;;;;;;;;;;;;;;;5034589;28;19908;-85
2021/07/06 04:03:27;;;;;;;;;;;;;;;;;;5034656;28;19918;-85
2021/07/06 04:05:52;;;;;;;;;;;;;;;;;;5034412;28;19925;-85
2021/07/06 04:08:18;;;;;;;;;;;;;;;;;;5031413;28;19925;-85
2021/07/06 04:10:43;;;;;;;;;;;;;;;;;;5012374;28;19917;-84
2021/07/06 04:13:08;;;;;;;;;;;;;;;;;;5029111;28;19918;-86
2021/07/06 04:15:34;;;;;;;;;;;;;;;;;;5035051;28;19964;-84
2021/07/06 04:17:59;;;;;;;;;;;;;;;;;;5030824;28;19914;-85
2021/07/06 04:20:24;;;;;;;;;;;;;;;;;;5013588;28;19918;-85
2021/07/06 04:22:50;;;;;;;;;;;;;;;;;;5029252;28;19913;-86
2021/07/06 04:25:15;;;;;;;;;;;;;;;;;;5028385;28;20009;-87
2021/07/06 04:27:40;;;;;;;;;;;;;;;;;;5012185;28;19922;-84
2021/07/06 04:32:42;;;;;;;;;;;;;;;;;;4993612;28;19930;-80
2021/07/06 04:35:07;;;;;;;;;;;;;;;;;;4977120;28;19984;-78
2021/07/06 04:37:32;;;;;;;;;;;;;;;;;;4976998;28;19921;-78
2021/07/06 04:39:59;;;;;;;;;;;;;;;;;;4994258;28;19921;-78
2021/07/06 04:42:24;;;;;;;;;;;;;;;;;;4992891;28;19924;-78
2021/07/06 04:44:49;;;;;;;;;;;;;;;;;;5009759;28;19922;-77
2021/07/06 04:47:14;;;;;;;;;;;;;;;;;;4993426;28;19925;-78
2021/07/06 04:49:39;;;;;;;;;;;;;;;;;;4977234;28;19914;-78
2021/07/06 04:52:05;;;;;;;;;;;;;;;;;;4976769;28;19984;-78
2021/07/06 04:54:30;;;;;;;;;;;;;;;;;;4993468;28;19930;-77
2021/07/06 04:56:55;;;;;;;;;;;;;;;;;;4994800;28;19914;-78
2021/07/06 04:59:21;;;;;;;;;;;;;;;;;;4976097;28;19918;-77
2021/07/06 05:01:46;;;;;;;;;;;;;;;;;;4960844;28;19924;-77
2021/07/06 05:04:11;;;;;;;;;;;;;;;;;;4976695;28;20391;-78
2021/07/06 05:06:36;;;;;;;;;;;;;;;;;;4977688;28;19929;-77
2021/07/06 05:09:02;;;;;;;;;;;;;;;;;;4996831;28;19925;-77
2021/07/06 05:11:27;;;;;;;;;;;;;;;;;;4976965;28;19941;-77
2021/07/06 05:13:52;;;;;;;;;;;;;;;;;;4945046;28;20373;-77
2021/07/06 05:16:17;;;;;;;;;;;;;;;;;;4960942;28;19914;-77
2021/07/06 05:18:43;;;;;;;;;;;;;;;;;;4981068;28;19918;-77
2021/07/06 05:21:08;;;;;;;;;;;;;;;;;;4998411;28;19992;-77
2021/07/06 05:23:33;;;;;;;;;;;;;;;;;;4980279;28;19928;-77
2021/07/06 05:25:58;;;;;;;;;;;;;;;;;;4996459;28;19914;-77
2021/07/06 05:28:24;;;;;;;;;;;;;;;;;;4996531;28;19921;-77
2021/07/06 05:30:49;;;;;;;;;;;;;;;;;;4963932;28;19918;-77
2021/07/06 05:33:15;;;;;;;;;;;;;;;;;;4992759;28;19918;-77
2021/07/06 05:35:40;;;;;;;;;;;;;;;;;;4996349;28;19929;-77
2021/07/06 05:38:05;;;;;;;;;;;;;;;;;;4996102;28;20281;-77
2021/07/06 05:40:30;;;;;;;;;;;;;;;;;;4981596;28;20282;-77
2021/07/06 05:42:56;;;;;;;;;;;;;;;;;;4988099;28;20435;-76
2021/07/06 05:45:21;;;;;;;;;;;;;;;;;;4997022;28;19929;-77
2021/07/06 05:47:46;;;;;;;;;;;;;;;;;;4995897;28;19952;-77
2021/07/06 05:50:12;;;;;;;;;;;;;;;;;;4994012;28;20328;-77
2021/07/06 05:52:38;;;;;;;;;;;;;;;;;;4995905;28;19925;-77
2021/07/06 05:55:03;;;;;;;;;;;;;;;;;;4996044;28;19914;-77
2021/07/06 05:57:31;;;;;;;;;;;;;;;;;;4979710;28;20000;-77
2021/07/06 06:00:00;;;;;;;;;;;;;;;;;;5004749;28;19926;-77
2021/07/06 06:02:25;;;;;;;;;;;;;;;;;;5012017;28;19914;-77
2021/07/06 06:04:50;;;;;;;;;;;;;;;;;;4996684;28;20348;-77
2021/07/06 06:07:15;;;;;;;;;;;;;;;;;;4996635;28;19924;-77
2021/07/06 06:09:41;;;;;;;;;;;;;;;;;;4979266;28;19913;-77
2021/07/06 06:12:06;;;;;;;;;;;;;;;;;;5003484;28;20282;-78
2021/07/06 06:14:31;;;;;;;;;;;;;;;;;;5010807;28;19914;-78
2021/07/06 06:16:56;;;;;;;;;;;;;;;;;;4996108;28;19918;-78
2021/07/06 06:19:21;;;;;;;;;;;;;;;;;;4989814;28;20388;-77
2021/07/06 06:21:47;;;;;;;;;;;;;;;;;;5009080;28;19922;-77
2021/07/06 06:24:12;;;;;;;;;;;;;;;;;;4979316;28;19929;-77
2021/07/06 06:26:37;;;;;;;;;;;;;;;;;;4963880;28;20008;-77
2021/07/06 06:29:02;;;;;;;;;;;;;;;;;;4996584;28;20023;-77
2021/07/06 06:31:27;;;;;;;;;;;;;;;;;;4995149;28;19918;-77
2021/07/06 06:33:53;;;;;;;;;;;;;;;;;;5011691;28;19992;-77
2021/07/06 06:36:18;;;;;;;;;;;;;;;;;;5011547;28;20265;-77
2021/07/06 06:38:43;;;;;;;;;;;;;;;;;;4983938;28;19928;-77
2021/07/06 06:41:08;;;;;;;;;;;;;;;;;;5011718;28;19914;-77
2021/07/06 06:43:34;;;;;;;;;;;;;;;;;;4995005;28;19922;-77
2021/07/06 06:46:00;;;;;;;;;;;;;;;;;;5008039;28;20032;-77
2021/07/06 06:48:25;;;;;;;;;;;;;;;;;;4995743;28;19994;-77
2021/07/06 06:50:50;;;;;;;;;;;;;;;;;;4978711;28;19929;-77
2021/07/06 06:53:16;;;;;;;;;;;;;;;;;;4989013;28;19921;-77
2021/07/06 06:55:41;;;;;;;;;;;;;;;;;;5013461;28;19925;-77
2021/07/06 06:58:07;;;;;;;;;;;;;;;;;;5011213;28;19913;-77
2021/07/06 07:00:32;;;;;;;;;;;;;;;;;;4994994;28;19913;-77
2021/07/06 07:02:58;;;;;;;;;;;;;;;;;;4995929;28;19921;-77
2021/07/06 07:05:23;;;;;;;;;;;;;;;;;;4994619;28;19918;-77
2021/07/06 07:07:48;;;;;;;;;;;;;;;;;;4978259;28;20372;-77
2021/07/06 07:10:13;;;;;;;;;;;;;;;;;;4982073;28;19920;-77
2021/07/06 07:12:40;;;;;;;;;;;;;;;;;;4996122;28;19979;-77
2021/07/06 07:15:09;;;;;;;;;;;;;;;;;;4994874;28;19917;-78
2021/07/06 07:17:34;;;;;;;;;;;;;;;;;;4994451;28;19913;-77
2021/07/06 07:19:59;;;;;;;;;;;;;;;;;;4994402;28;19914;-77
2021/07/06 07:22:25;;;;;;;;;;;;;;;;;;4978087;28;20459;-78
2021/07/06 07:24:50;;;;;;;;;;;;;;;;;;4994180;28;20373;-77
2021/07/06 07:27:15;;;;;;;;;;;;;;;;;;4978046;28;19983;-77
2021/07/06 07:29:40;;;;;;;;;;;;;;;;;;4977034;28;20328;-77
2021/07/06 07:32:06;;;;;;;;;;;;;;;;;;4993666;28;19922;-77
2021/07/06 07:34:31;;;;;;;;;;;;;;;;;;4994032;28;20019;-77
2021/07/06 07:36:57;;;;;;;;;;;;;;;;;;4977792;28;19968;-77
2021/07/06 07:39:22;;;;;;;;;;;;;;;;;;4977728;28;19964;-77
2021/07/06 07:41:47;;;;;;;;;;;;;;;;;;4977711;28;19914;-77
2021/07/06 07:44:12;;;;;;;;;;;;;;;;;;4995179;28;19918;-77
2021/07/06 07:46:38;;;;;;;;;;;;;;;;;;4997036;28;19920;-78
2021/07/06 07:49:03;;;;;;;;;;;;;;;;;;5013555;28;19913;-77
2021/07/06 07:51:28;;;;;;;;;;;;;;;;;;5013819;28;19913;-78
2021/07/06 07:53:53;;;;;;;;;;;;;;;;;;5013510;28;19920;-77
2021/07/06 07:56:18;;;;;;;;;;;;;;;;;;5013366;28;19964;-77
2021/07/06 07:58:43;;;;;;;;;;;;;;;;;;4996906;28;19918;-77
2021/07/06 08:01:09;;;;;;;;;;;;;;;;;;5014781;28;20296;-77
2021/07/06 08:03:34;;;;;;;;;;;;;;;;;;4996799;28;19925;-77
2021/07/06 08:05:59;;;;;;;;;;;;;;;;;;5013104;28;19918;-77
2021/07/06 08:08:24;;;;;;;;;;;;;;;;;;4996671;28;19960;-77
2021/07/06 08:10:52;;;;;;;;;;;;;;;;;;5014439;28;19949;-77
2021/07/06 08:13:21;;;;;;;;;;;;;;;;;;4992037;28;19940;-77
2021/07/06 08:15:46;;;;;;;;;;;;;;;;;;4977140;28;20435;-78
2021/07/06 08:18:11;;;;;;;;;;;;;;;;;;4977221;28;19914;-78
2021/07/06 08:20:37;;;;;;;;;;;;;;;;;;4976961;28;19918;-78
2021/07/06 08:23:02;;;;;;;;;;;;;;;;;;4993424;28;20363;-78
2021/07/06 08:25:27;;;;;;;;;;;;;;;;;;4977172;28;19977;-78
2021/07/06 08:27:52;;;;;;;;;;;;;;;;;;4993446;28;20328;-78
2021/07/06 08:30:17;;;;;;;;;;;;;;;;;;4976980;28;20410;-78
2021/07/06 08:32:43;;;;;;;;;;;;;;;;;;4977007;28;19961;-77
2021/07/06 08:35:09;;;;;;;;;;;;;;;;;;4976928;28;19968;-77
2021/07/06 08:37:35;;;;;;;;;;;;;;;;;;4976762;28;19964;-77
2021/07/06 08:40:00;;;;;;;;;;;;;;;;;;4976800;28;20367;-77
2021/07/06 08:42:25;;;;;;;;;;;;;;;;;;4992970;28;19914;-77
2021/07/06 08:44:50;;;;;;;;;;;;;;;;;;4992924;28;19992;-77
2021/07/06 08:47:16;;;;;;;;;;;;;;;;;;4993079;28;19972;-77
2021/07/06 08:49:41;;;;;;;;;;;;;;;;;;4993043;28;19937;-77
2021/07/06 08:52:06;;;;;;;;;;;;;;;;;;4992815;28;19922;-77
2021/07/06 08:54:32;;;;;;;;;;;;;;;;;;4976759;28;19918;-78
2021/07/06 08:56:57;;;;;;;;;;;;;;;;;;4993430;28;20004;-78
2021/07/06 08:59:22;;;;;;;;;;;;;;;;;;4994910;28;20276;-78
2021/07/06 09:01:47;;;;;;;;;;;;;;;;;;4992788;28;20283;-78
2021/07/06 09:04:12;;;;;;;;;;;;;;;;;;4993037;28;19918;-78
2021/07/06 09:06:56;;;;;;;;;;;;;;;;;;4993244;28;19921;-78
2021/07/06 09:09:22;;;;;;;;;;;;;;;;;;4993021;28;19952;-77
2021/07/06 09:11:52;;;;;;;;;;;;;;;;;;4976881;28;19945;-78
2021/07/06 09:14:17;;;;;;;;;;;;;;;;;;4976563;28;19925;-77
2021/07/06 09:16:42;;;;;;;;;;;;;;;;;;4961154;28;19918;-77
2021/07/06 09:19:23;;;;;;;;;;;;;;;;;;4983239;28;19913;-77
2021/07/06 09:22:07;;;;;;;;;;;;;;;;;;4995499;28;19913;-77
2021/07/06 09:24:33;;;;;;;;;;;;;;;;;;4987555;28;19939;-77
2021/07/06 09:26:58;;;;;;;;;;;;;;;;;;4992782;28;19937;-77
2021/07/06 09:29:26;;;;;;;;;;;;;;;;;;4976402;28;20357;-77
2021/07/06 09:31:52;;;;;;;;;;;;;;;;;;4992915;28;20351;-77
2021/07/06 09:34:17;;;;;;;;;;;;;;;;;;4992664;28;20041;-77
2021/07/06 09:36:43;;;;;;;;;;;;;;;;;;5001164;28;19952;-77
2021/07/06 09:39:11;;;;;;;;;;;;;;;;;;4994258;28;20012;-77
2021/07/06 09:41:36;;;;;;;;;;;;;;;;;;4976268;28;19921;-77
2021/07/06 09:44:18;;;;;;;;;;;;;;;;;;4976270;28;19918;-77
2021/07/06 09:46:47;;;;;;;;;;;;;;;;;;4976392;28;19913;-77
2021/07/06 09:49:16;;;;;;;;;;;;;;;;;;4987933;28;19924;-78
2021/07/06 09:51:44;;;;;;;;;;;;;;;;;;4996987;28;20420;-78
2021/07/06 09:54:10;;;;;;;;;;;;;;;;;;4980438;28;20320;-77
2021/07/06 09:56:39;;;;;;;;;;;;;;;;;;4989047;28;20020;-77
2021/07/06 09:59:05;;;;;;;;;;;;;;;;;;4986365;28;19918;-77
2021/07/06 10:01:30;;;;;;;;;;;;;;;;;;4979642;28;20042;-78
2021/07/06 10:03:56;;;;;;;;;;;;;;;;;;4979343;28;20016;-78
2021/07/06 10:06:22;;;;;;;;;;;;;;;;;;4980081;28;20055;-78
2021/07/06 10:08:48;;;;;;;;;;;;;;;;;;4987472;28;20004;-77
2021/07/06 10:11:13;;;;;;;;;;;;;;;;;;4979536;28;19965;-78
2021/07/06 10:13:38;;;;;;;;;;;;;;;;;;5005983;28;20269;-78
2021/07/06 10:16:04;;;;;;;;;;;;;;;;;;4984753;28;20296;-77
2021/07/06 10:18:30;;;;;;;;;;;;;;;;;;4963432;28;20411;-78
2021/07/06 10:20:55;;;;;;;;;;;;;;;;;;4984489;28;19991;-78
2021/07/06 10:23:20;;;;;;;;;;;;;;;;;;4979515;28;19914;-78
2021/07/06 10:25:45;;;;;;;;;;;;;;;;;;4981057;28;19918;-78
2021/07/06 10:28:14;;;;;;;;;;;;;;;;;;4995661;28;19914;-78
2021/07/06 10:30:40;;;;;;;;;;;;;;;;;;4968978;28;19926;-78
2021/07/06 10:51:32;;;;;;;;;;;;;;;;;;5055701;28;19925;-84
2021/07/06 10:54:25;;;;;;;;;;;;;;;;;;5059677;28;19960;-84
2021/07/06 10:56:51;;;;;;;;;;;;;;;;;;5033599;28;19917;-84
2021/07/06 10:59:23;;;;;;;;;;;;;;;;;;5041313;28;19952;-84
2021/07/06 11:01:49;;;;;;;;;;;;;;;;;;5059089;28;19933;-84
2021/07/06 11:04:34;;;;;;;;;;;;;;;;;;5059322;28;19972;-84
2021/07/06 11:06:59;;;;;;;;;;;;;;;;;;5049849;28;19921;-84
2021/07/06 11:09:24;;;;;;;;;;;;;;;;;;5048191;28;19924;-84
2021/07/06 11:11:49;;;;;;;;;;;;;;;;;;5059983;28;19930;-85
2021/07/06 11:14:18;;;;;;;;;;;;;;;;;;5022999;28;19921;-84
2021/07/06 11:16:43;;;;;;;;;;;;;;;;;;5022720;28;19917;-84
2021/07/06 11:19:27;;;;;;;;;;;;;;;;;;5040773;28;19924;-84
2021/07/06 11:22:06;;;;;;;;;;;;;;;;;;5060441;28;19913;-84
2021/07/06 11:24:33;;;;;;;;;;;;;;;;;;5060178;28;19927;-84
2021/07/06 11:26:58;;;;;;;;;;;;;;;;;;5025788;28;20000;-84
2021/07/06 11:29:25;;;;;;;;;;;;;;;;;;5047931;28;20043;-84
2021/07/06 11:32:04;;;;;;;;;;;;;;;;;;5067678;28;19939;-84
2021/07/06 11:34:33;;;;;;;;;;;;;;;;;;5030767;28;19920;-84
2021/07/06 11:36:58;;;;;;;;;;;;;;;;;;5071094;28;19923;-84
2021/07/06 11:39:23;;;;;;;;;;;;;;;;;;5060208;28;19916;-84
2021/07/06 11:41:48;;;;;;;;;;;;;;;;;;5024402;28;19920;-84
2021/07/06 11:44:18;;;;;;;;;;;;;;;;;;5035093;28;19925;-84
2021/07/06 11:46:43;;;;;;;;;;;;;;;;;;5040289;28;20063;-84
2021/07/06 11:49:09;;;;;;;;;;;;;;;;;;5055016;28;19917;-84
2021/07/06 11:51:37;;;;;;;;;;;;;;;;;;5038752;28;19920;-84
2021/07/06 11:54:03;;;;;;;;;;;;;;;;;;5039116;28;19917;-84
2021/07/06 11:56:29;;;;;;;;;;;;;;;;;;5047394;28;20027;-84
2021/07/06 11:58:54;;;;;;;;;;;;;;;;;;5055442;28;19972;-84
2021/07/06 12:01:20;;;;;;;;;;;;;;;;;;5071578;28;19897;-84
2021/07/06 12:03:45;;;;;;;;;;;;;;;;;;5072411;28;19967;-85
2021/07/06 12:06:11;;;;;;;;;;;;;;;;;;5062029;28;19909;-85
2021/07/06 12:08:37;;;;;;;;;;;;;;;;;;5051856;28;19944;-85
2021/07/06 12:11:02;;;;;;;;;;;;;;;;;;5042637;28;19910;-85
2021/07/06 12:13:37;;;;;;;;;;;;;;;;;;5059477;28;19977;-85
2021/07/06 12:16:04;;;;;;;;;;;;;;;;;;5041984;28;19914;-84
2021/07/06 12:18:30;;;;;;;;;;;;;;;;;;5041525;28;19905;-85
2021/07/06 12:20:57;;;;;;;;;;;;;;;;;;5030468;28;19947;-84
2021/07/06 12:23:22;;;;;;;;;;;;;;;;;;5060077;28;19947;-83
2021/07/06 12:25:47;;;;;;;;;;;;;;;;;;5062388;28;19917;-83
2021/07/06 12:28:12;;;;;;;;;;;;;;;;;;5019385;28;19925;-83
2021/07/06 12:30:37;;;;;;;;;;;;;;;;;;5051326;28;20126;-83
2021/07/06 12:33:08;;;;;;;;;;;;;;;;;;5020515;28;19976;-84
2021/07/06 12:35:33;;;;;;;;;;;;;;;;;;5040545;28;19917;-84
2021/07/06 12:38:04;;;;;;;;;;;;;;;;;;5020194;28;19928;-84
2021/07/06 12:40:30;;;;;;;;;;;;;;;;;;5037910;28;19920;-84
2021/07/06 12:42:56;;;;;;;;;;;;;;;;;;5025133;28;19901;-85
2021/07/06 12:45:21;;;;;;;;;;;;;;;;;;5057870;28;19927;-85
2021/07/06 12:47:46;;;;;;;;;;;;;;;;;;5046689;28;19925;-85
2021/07/06 12:50:19;;;;;;;;;;;;;;;;;;5024593;28;19932;-85
2021/07/06 12:52:54;;;;;;;;;;;;;;;;;;5025491;28;19953;-85
2021/07/06 12:55:23;;;;;;;;;;;;;;;;;;5024768;28;19939;-84
2021/07/06 12:57:54;;;;;;;;;;;;;;;;;;5071012;28;19921;-84
2021/07/06 13:00:20;;;;;;;;;;;;;;;;;;5070088;28;19924;-84
2021/07/06 13:02:47;;;;;;;;;;;;;;;;;;5055462;28;20396;-84
2021/07/06 13:05:25;;;;;;;;;;;;;;;;;;5022500;28;19924;-84
2021/07/06 13:07:50;;;;;;;;;;;;;;;;;;5035257;28;20299;-83
2021/07/06 13:10:39;;;;;;;;;;;;;;;;;;5024954;28;19913;-84
2021/07/06 13:13:05;;;;;;;;;;;;;;;;;;5029888;28;19921;-84
2021/07/06 13:15:33;;;;;;;;;;;;;;;;;;5030783;28;19980;-84
2021/07/06 13:17:58;;;;;;;;;;;;;;;;;;5064189;28;19984;-84
2021/07/06 13:20:23;;;;;;;;;;;;;;;;;;5038481;28;19921;-84
2021/07/06 13:22:49;;;;;;;;;;;;;;;;;;5052706;28;19904;-84
2021/07/06 13:25:15;;;;;;;;;;;;;;;;;;5054123;28;19943;-84
2021/07/06 13:27:40;;;;;;;;;;;;;;;;;;5044900;28;19964;-82
2021/07/06 13:30:07;;;;;;;;;;;;;;;;;;5061278;28;19924;-82
2021/07/06 13:32:35;;;;;;;;;;;;;;;;;;5023522;28;19924;-82
2021/07/06 13:35:00;;;;;;;;;;;;;;;;;;5033664;28;19917;-82
2021/07/06 13:37:29;;;;;;;;;;;;;;;;;;5032946;28;19917;-82
2021/07/06 13:39:54;;;;;;;;;;;;;;;;;;5058751;28;19940;-82
2021/07/06 13:42:19;;;;;;;;;;;;;;;;;;5055485;28;19913;-83
2021/07/06 13:44:44;;;;;;;;;;;;;;;;;;5068300;28;19959;-82
2021/07/06 13:47:09;;;;;;;;;;;;;;;;;;5054007;28;19976;-84
2021/07/06 13:49:35;;;;;;;;;;;;;;;;;;5033169;28;19922;-83
2021/07/06 13:52:00;;;;;;;;;;;;;;;;;;5040816;28;19975;-79
2021/07/06 13:54:28;;;;;;;;;;;;;;;;;;5040316;28;19917;-79
2021/07/06 13:56:53;;;;;;;;;;;;;;;;;;5042747;28;20446;-79
2021/07/06 13:59:24;;;;;;;;;;;;;;;;;;5054540;28;19917;-79
2021/07/06 14:01:49;;;;;;;;;;;;;;;;;;5049242;28;19917;-78
2021/07/06 14:04:14;;;;;;;;;;;;;;;;;;5030340;28;19936;-78
2021/07/06 14:06:39;;;;;;;;;;;;;;;;;;5025980;28;20029;-78
2021/07/06 14:09:05;;;;;;;;;;;;;;;;;;5040625;28;20376;-78
2021/07/06 14:11:30;;;;;;;;;;;;;;;;;;5024743;28;19913;-79
2021/07/06 14:13:55;;;;;;;;;;;;;;;;;;5038721;28;19913;-79
2021/07/06 14:16:21;;;;;;;;;;;;;;;;;;5057888;28;19917;-79
2021/07/06 14:18:46;;;;;;;;;;;;;;;;;;5054847;28;19920;-83
2021/07/06 14:21:11;;;;;;;;;;;;;;;;;;5045762;28;19924;-83
2021/07/06 14:23:37;;;;;;;;;;;;;;;;;;5036267;28;19936;-83
2021/07/06 14:26:03;;;;;;;;;;;;;;;;;;5021636;28;19960;-84
2021/07/06 14:28:31;;;;;;;;;;;;;;;;;;5020958;28;20004;-84
2021/07/06 14:30:56;;;;;;;;;;;;;;;;;;5028629;28;19914;-84
2021/07/06 14:33:21;;;;;;;;;;;;;;;;;;5070901;28;19914;-83
2021/07/06 14:35:47;;;;;;;;;;;;;;;;;;5064966;28;19917;-82
2021/07/06 14:38:12;;;;;;;;;;;;;;;;;;5073103;28;19940;-82
2021/07/06 14:40:37;;;;;;;;;;;;;;;;;;5073097;28;19980;-82
2021/07/06 14:43:03;;;;;;;;;;;;;;;;;;5067517;28;19992;-82
2021/07/06 14:45:28;;;;;;;;;;;;;;;;;;5072569;28;19921;-83
2021/07/06 14:47:53;;;;;;;;;;;;;;;;;;5044254;28;19913;-84
2021/07/06 14:50:19;;;;;;;;;;;;;;;;;;5022269;28;19930;-84
2021/07/06 14:52:44;;;;;;;;;;;;;;;;;;5016874;28;19960;-84
2021/07/06 14:55:10;;;;;;;;;;;;;;;;;;5020495;28;19944;-84
2021/07/06 14:57:35;;;;;;;;;;;;;;;;;;5037028;28;19988;-84
2021/07/06 15:00:00;;;;;;;;;;;;;;;;;;5018828;28;20383;-83
2021/07/06 15:02:26;;;;;;;;;;;;;;;;;;5035204;28;20500;-83
2021/07/06 15:04:51;;;;;;;;;;;;;;;;;;5018205;28;19984;-83
2021/07/06 15:07:16;;;;;;;;;;;;;;;;;;5034172;28;20011;-83
2021/07/06 15:09:43;;;;;;;;;;;;;;;;;;5017289;28;19913;-83
2021/07/06 15:12:08;;;;;;;;;;;;;;;;;;5034545;28;19913;-83
2021/07/06 15:14:33;;;;;;;;;;;;;;;;;;5018422;28;19919;-83
2021/07/06 15:16:59;;;;;;;;;;;;;;;;;;5017442;28;19917;-83
2021/07/06 15:19:24;;;;;;;;;;;;;;;;;;5017772;28;19967;-83
2021/07/06 15:21:49;;;;;;;;;;;;;;;;;;5017546;28;19913;-83
2021/07/06 15:24:14;;;;;;;;;;;;;;;;;;5017648;28;19925;-83
2021/07/06 15:26:40;;;;;;;;;;;;;;;;;;5018132;28;19960;-83
2021/07/06 15:29:05;;;;;;;;;;;;;;;;;;5017911;28;19960;-83
2021/07/06 15:31:30;;;;;;;;;;;;;;;;;;5033604;28;19913;-83
2021/07/06 15:33:56;;;;;;;;;;;;;;;;;;5018020;28;19913;-83
2021/07/06 15:36:21;;;;;;;;;;;;;;;;;;5034867;28;19913;-83
2021/07/06 15:38:46;;;;;;;;;;;;;;;;;;5038629;28;19920;-83
2021/07/06 15:41:11;;;;;;;;;;;;;;;;;;5065656;28;19917;-83
2021/07/06 15:43:37;;;;;;;;;;;;;;;;;;5017452;28;19979;-83
2021/07/06 15:46:02;;;;;;;;;;;;;;;;;;5019711;28;20048;-83
2021/07/06 15:48:29;;;;;;;;;;;;;;;;;;5018098;28;20409;-83
2021/07/06 15:50:54;;;;;;;;;;;;;;;;;;5028341;28;19917;-83
2021/07/06 15:53:19;;;;;;;;;;;;;;;;;;5071156;28;19913;-84
2021/07/06 15:55:44;;;;;;;;;;;;;;;;;;5054274;28;19913;-83
2021/07/06 15:58:10;;;;;;;;;;;;;;;;;;5048852;28;19913;-83
2021/07/06 16:00:35;;;;;;;;;;;;;;;;;;5065217;28;19971;-83
2021/07/06 16:03:01;;;;;;;;;;;;;;;;;;5008310;28;19913;-84
2021/07/06 16:05:26;;;;;;;;;;;;;;;;;;5021992;28;19928;-84
2021/07/06 16:07:51;;;;;;;;;;;;;;;;;;5022144;28;19927;-83
2021/07/06 16:10:17;;;;;;;;;;;;;;;;;;5036718;28;19920;-84
2021/07/06 16:12:43;;;;;;;;;;;;;;;;;;5051447;28;19901;-84
2021/07/06 16:15:08;;;;;;;;;;;;;;;;;;5068377;28;19905;-83
2021/07/06 16:17:33;;;;;;;;;;;;;;;;;;5022075;28;19912;-84
2021/07/06 16:20:00;;;;;;;;;;;;;;;;;;5010638;28;19921;-81
2021/07/06 16:22:25;;;;;;;;;;;;;;;;;;5032963;28;19917;-80
2021/07/06 16:24:52;;;;;;;;;;;;;;;;;;5033285;28;19917;-80
2021/07/06 16:27:17;;;;;;;;;;;;;;;;;;5042168;28;19924;-81
2021/07/06 16:29:43;;;;;;;;;;;;;;;;;;5001972;28;19913;-78
2021/07/06 16:32:08;;;;;;;;;;;;;;;;;;5024296;28;20019;-80
2021/07/06 16:34:34;;;;;;;;;;;;;;;;;;5020270;28;19925;-79
2021/07/06 16:36:59;;;;;;;;;;;;;;;;;;5058195;28;20024;-79
2021/07/06 16:39:30;;;;;;;;;;;;;;;;;;5053052;28;19916;-78
2021/07/06 16:42:20;;;;;;;;;;;;;;;;;;5030001;28;19917;-81
2021/07/06 16:44:46;;;;;;;;;;;;;;;;;;5025317;28;19936;-79
2021/07/06 16:47:12;;;;;;;;;;;;;;;;;;5027433;28;19921;-78
2021/07/06 16:49:37;;;;;;;;;;;;;;;;;;5045289;28;19921;-78
2021/07/06 17:36:07;;;;;;;;;;;;;;;;;;;;;
2021/07/06 18:00:24;;;;;;;;;;;;;;;;;;4941587;29;19923;-78
2021/07/06 18:05:33;;;;;;;;;;;;;;;;;;4941277;29;19980;-78
2021/07/06 18:07:58;;;;;;;;;;;;;;;;;;4933984;29;19991;-77